Time;durP1;ratioP1;P1;durP2;ratioP2;P2;SDS_P1;SDS_P2;PMS_P1;PMS_P2;Temp;Humidity;BMP_temperature;BMP_pressure;BME280_temperature;BME280_humidity;BME280_pressure;Samples;Min_cycle;Max_cycle;Signal;HPM_P1;HPM_P2
2024/01/25 00:01:54;;;;;;;13.20;7.37;;;;;;;1.10;100.00;99300.50;5051708;28;20048;-64
2024/01/25 00:04:20;;;;;;;9.67;5.80;;;;;;;1.10;100.00;99306.59;5051675;28;20113;-64
2024/01/25 00:06:45;;;;;;;8.87;6.90;;;;;;;1.24;100.00;99334.22;5051587;28;20123;-64
2024/01/25 00:09:11;;;;;;;9.00;6.13;;;;;;;1.15;100.00;99324.53;5035231;28;20037;-65
2024/01/25 00:11:36;;;;;;;11.83;6.73;;;;;;;1.14;100.00;99328.13;5035494;28;20128;-64
2024/01/25 00:14:02;;;;;;;14.87;7.73;;;;;;;1.03;100.00;99310.72;5035328;28;20038;-68
2024/01/25 00:16:27;;;;;;;8.53;6.07;;;;;;;1.05;100.00;99327.16;5034917;28;20475;-63
2024/01/25 00:18:57;;;;;;;11.60;6.00;;;;;;;1.03;100.00;99328.25;5035033;28;20049;-63
2024/01/25 00:21:22;;;;;;;11.03;6.43;;;;;;;0.95;100.00;99320.25;5033672;28;20099;-64
2024/01/25 00:23:47;;;;;;;8.80;5.70;;;;;;;0.66;100.00;99268.63;5035152;28;20639;-64
2024/01/25 00:26:13;;;;;;;8.87;5.63;;;;;;;1.16;100.00;99331.47;5035033;28;20037;-64
2024/01/25 00:28:38;;;;;;;6.93;5.93;;;;;;;1.05;100.00;99307.97;5034619;28;20120;-65
2024/01/25 00:31:04;;;;;;;7.80;5.90;;;;;;;1.23;100.00;99336.00;5034780;28;20076;-65
2024/01/25 00:33:29;;;;;;;8.80;5.50;;;;;;;1.27;100.00;99344.41;5035306;28;20045;-64
2024/01/25 00:35:55;;;;;;;7.83;5.43;;;;;;;1.25;100.00;99335.88;5033345;28;20087;-67
2024/01/25 00:38:21;;;;;;;9.00;6.20;;;;;;;1.26;100.00;99332.28;5034877;28;20175;-63
2024/01/25 00:40:47;;;;;;;12.20;6.10;;;;;;;1.15;100.00;99330.59;5033639;28;20037;-65
2024/01/25 00:43:12;;;;;;;7.20;5.20;;;;;;;1.06;100.00;99334.06;5034624;28;20112;-63
2024/01/25 00:45:38;;;;;;;8.97;5.47;;;;;;;1.00;100.00;99325.91;5034308;28;20033;-64
2024/01/25 00:48:04;;;;;;;7.50;5.53;;;;;;;1.06;100.00;99341.09;5034578;28;20041;-65
2024/01/25 00:50:30;;;;;;;9.33;5.27;;;;;;;0.99;100.00;99334.75;5034802;28;20515;-63
2024/01/25 00:52:55;;;;;;;11.37;5.30;;;;;;;1.10;100.00;99342.47;5034784;28;20479;-63
2024/01/25 00:55:21;;;;;;;10.33;6.17;;;;;;;1.03;100.00;99341.38;5035238;28;20030;-65
2024/01/25 00:57:47;;;;;;;8.37;4.73;;;;;;;1.11;100.00;99344.13;5036614;28;20121;-65
2024/01/25 01:00:13;;;;;;;9.90;5.77;;;;;;;1.02;100.00;99329.22;5034625;28;20037;-64
2024/01/25 01:02:44;;;;;;;8.33;5.17;;;;;;;1.04;100.00;99332.53;5034423;28;20064;-65
2024/01/25 01:05:10;;;;;;;8.90;5.10;;;;;;;0.96;100.00;99325.38;5034223;28;20034;-64
2024/01/25 01:07:36;;;;;;;9.30;5.40;;;;;;;0.95;100.00;99328.13;5034097;28;20284;-65
2024/01/25 01:10:02;;;;;;;6.40;5.03;;;;;;;1.11;100.00;99334.47;5033821;28;20310;-66
2024/01/25 01:12:30;;;;;;;10.77;5.67;;;;;;;1.28;100.00;99348.69;5033805;28;20520;-65
2024/01/25 01:14:55;;;;;;;5.67;4.40;;;;;;;1.22;100.00;99341.38;5034169;28;20318;-65
2024/01/25 01:17:21;;;;;;;8.07;4.87;;;;;;;1.02;100.00;99323.97;5034340;28;20288;-64
2024/01/25 01:19:48;;;;;;;7.97;4.77;;;;;;;1.22;100.00;99359.75;5033127;28;20060;-65
2024/01/25 01:22:15;;;;;;;5.50;4.30;;;;;;;1.17;100.00;99362.78;5033085;28;20313;-64
2024/01/25 01:24:40;;;;;;;4.43;4.03;;;;;;;1.11;100.00;99359.84;5033909;28;20045;-64
2024/01/25 01:27:06;;;;;;;7.13;3.87;;;;;;;1.08;100.00;99341.78;5033707;28;20049;-64
2024/01/25 01:29:31;;;;;;;5.43;3.90;;;;;;;0.97;100.00;99321.78;5033618;28;20055;-67
2024/01/25 01:31:57;;;;;;;4.30;3.63;;;;;;;1.16;100.00;99341.94;5033486;28;20124;-65
2024/01/25 01:34:24;;;;;;;8.00;3.93;;;;;;;1.01;100.00;99311.84;5033529;28;20049;-65
2024/01/25 01:36:49;;;;;;;3.90;3.50;;;;;;;1.17;100.00;99344.44;5033701;28;20740;-64
2024/01/25 01:39:15;;;;;;;3.47;3.10;;;;;;;1.05;100.00;99339.44;5032589;28;20322;-65
2024/01/25 01:41:40;;;;;;;4.13;3.73;;;;;;;0.67;100.00;99277.31;5033514;28;20037;-67
2024/01/25 01:44:05;;;;;;;5.80;3.97;;;;;;;0.92;100.00;99316.13;5033533;28;20091;-65
2024/01/25 01:46:35;;;;;;;3.77;3.40;;;;;;;1.18;100.00;99355.75;5033514;28;20029;-66
2024/01/25 01:49:01;;;;;;;4.30;3.57;;;;;;;1.05;100.00;99334.19;5033254;28;20499;-65
2024/01/25 01:51:28;;;;;;;4.43;3.10;;;;;;;1.10;100.00;99361.66;5033356;28;20272;-65
2024/01/25 01:53:55;;;;;;;5.77;3.70;;;;;;;0.72;100.00;99306.56;5033381;28;20272;-64
2024/01/25 01:56:20;;;;;;;4.20;3.80;;;;;;;1.11;100.00;99365.09;5031575;28;20283;-64
2024/01/25 01:58:48;;;;;;;4.90;2.87;;;;;;;1.00;100.00;99337.22;5033261;28;20279;-63
2024/01/25 02:01:13;;;;;;;5.53;3.40;;;;;;;1.07;100.00;99342.75;5033240;28;20499;-64
2024/01/25 02:03:39;;;;;;;4.37;3.30;;;;;;;0.75;100.00;99317.59;5031870;28;20264;-64
2024/01/25 02:06:06;;;;;;;3.77;3.47;;;;;;;0.90;100.00;99341.63;5032958;28;20030;-66
2024/01/25 02:08:32;;;;;;;5.03;3.60;;;;;;;0.80;100.00;99325.03;5032957;28;20032;-64
2024/01/25 02:10:58;;;;;;;4.77;3.47;;;;;;;1.07;100.00;99358.47;5032844;28;20287;-65
2024/01/25 02:13:23;;;;;;;3.83;3.40;;;;;;;1.05;100.00;99352.53;5032711;28;20280;-65
2024/01/25 02:15:49;;;;;;;4.13;3.67;;;;;;;1.13;100.00;99363.16;5033002;28;20033;-66
2024/01/25 02:18:35;;;;;;;5.00;3.47;;;;;;;1.15;100.00;99367.31;5031862;28;20505;-65
2024/01/25 02:21:02;;;;;;;4.80;3.73;;;;;;;1.10;100.00;99347.72;5032457;28;20373;-65
2024/01/25 02:23:27;;;;;;;6.20;4.03;;;;;;;1.15;100.00;99366.47;5032411;28;20083;-65
2024/01/25 02:25:53;;;;;;;5.73;3.63;;;;;;;0.99;100.00;99358.34;5032817;28;20365;-64
2024/01/25 02:28:18;;;;;;;5.27;3.73;;;;;;;1.08;100.00;99376.69;5032372;28;20041;-67
2024/01/25 02:30:44;;;;;;;4.43;4.07;;;;;;;0.90;100.00;99355.56;5032435;28;20033;-65
2024/01/25 02:33:10;;;;;;;5.77;4.43;;;;;;;1.15;100.00;99387.47;5032880;28;20473;-65
2024/01/25 02:35:37;;;;;;;4.70;4.07;;;;;;;1.11;100.00;99362.47;5032330;28;20041;-64
2024/01/25 02:38:03;;;;;;;5.10;4.40;;;;;;;1.23;100.00;99398.13;5032506;28;20481;-67
2024/01/25 02:40:28;;;;;;;5.93;4.33;;;;;;;0.93;100.00;99349.22;5032527;28;20276;-65
2024/01/25 02:42:54;;;;;;;6.27;4.97;;;;;;;1.07;100.00;99371.59;5032660;28;20065;-65
2024/01/25 02:45:19;;;;;;;5.33;4.63;;;;;;;1.12;100.00;99387.72;5032288;28;20090;-65
2024/01/25 02:47:44;;;;;;;6.67;5.57;;;;;;;1.08;100.00;99386.34;5032238;28;20033;-65
2024/01/25 02:50:10;;;;;;;7.40;5.07;;;;;;;1.16;100.00;99394.38;5064231;28;20044;-66
2024/01/25 02:52:35;;;;;;;5.10;4.57;;;;;;;1.17;100.00;99406.53;5032177;28;20049;-64
2024/01/25 02:55:01;;;;;;;5.93;5.30;;;;;;;1.09;100.00;99401.94;5030965;28;20469;-64
2024/01/25 02:57:27;;;;;;;5.90;5.20;;;;;;;1.00;100.00;99388.81;5031991;28;20052;-66
2024/01/25 02:59:52;;;;;;;7.53;5.27;;;;;;;1.05;100.00;99410.22;5030952;28;20444;-68
2024/01/25 03:02:21;;;;;;;6.70;5.10;;;;;;;0.85;100.00;99391.81;5031989;28;20268;-66
2024/01/25 03:04:46;;;;;;;6.72;5.80;;;;;;;0.84;100.00;99387.53;5031985;28;20033;-64
2024/01/25 03:07:12;;;;;;;6.23;5.00;;;;;;;0.72;100.00;99365.03;5031841;28;20572;-64
2024/01/25 03:09:37;;;;;;;8.03;5.63;;;;;;;0.88;100.00;99388.97;5032078;28;20110;-67
2024/01/25 03:12:03;;;;;;;6.63;5.17;;;;;;;0.98;100.00;99406.50;5032101;28;20029;-65
2024/01/25 03:14:28;;;;;;;9.07;6.53;;;;;;;0.99;100.00;99408.97;5032264;28;20046;-64
2024/01/25 03:16:55;;;;;;;6.03;5.23;;;;;;;1.07;100.00;99429.25;5032548;28;20040;-66
2024/01/25 03:19:24;;;;;;;6.03;5.43;;;;;;;0.87;100.00;99397.78;5031045;28;20088;-65
2024/01/25 03:21:50;;;;;;;6.43;4.93;;;;;;;0.98;100.00;99430.09;5031831;28;20814;-64
2024/01/25 03:24:15;;;;;;;7.20;5.50;;;;;;;0.88;100.00;99411.72;5030629;28;20276;-65
2024/01/25 03:26:41;;;;;;;5.73;4.70;;;;;;;1.00;100.00;99430.78;5031630;28;20032;-65
2024/01/25 03:29:06;;;;;;;5.23;4.53;;;;;;;0.60;100.00;99372.19;5031548;28;20222;-65
2024/01/25 03:31:32;;;;;;;6.13;4.97;;;;;;;0.74;100.00;99401.59;5031686;28;20037;-66
2024/01/25 03:33:57;;;;;;;6.23;5.37;;;;;;;0.85;100.00;99422.44;5031397;28;20037;-67
2024/01/25 03:36:23;;;;;;;6.63;5.63;;;;;;;0.88;100.00;99423.03;5030980;28;20041;-66
2024/01/25 03:38:48;;;;;;;5.53;4.70;;;;;;;0.75;100.00;99411.94;5031361;28;20485;-65
2024/01/25 03:41:14;;;;;;;9.17;5.70;;;;;;;0.93;100.00;99447.03;5031433;28;20037;-65
2024/01/25 03:43:39;;;;;;;6.70;5.57;;;;;;;0.78;100.00;99432.63;5031195;28;20041;-66
2024/01/25 03:46:05;;;;;;;6.63;5.00;;;;;;;0.75;100.00;99426.81;5031212;28;20041;-64
2024/01/25 03:48:30;;;;;;;11.23;5.83;;;;;;;0.88;100.00;99458.91;5031947;28;20052;-66
2024/01/25 03:50:56;;;;;;;7.33;5.33;;;;;;;0.70;100.00;99435.09;5038754;28;20041;-64
2024/01/25 03:53:22;;;;;;;6.57;5.60;;;;;;;0.75;100.00;99438.13;5040067;28;20068;-64
2024/01/25 03:55:49;;;;;;;5.33;4.70;;;;;;;0.88;100.00;99459.72;5046345;28;20551;-65
2024/01/25 03:58:16;;;;;;;7.33;5.53;;;;;;;0.86;100.00;99459.00;5045778;28;20271;-65
2024/01/25 04:00:43;;;;;;;;;;;;;;;0.88;100.00;99464.97;5051482;28;20303;-66
2024/01/25 04:03:10;;;;;;;7.17;5.30;;;;;;;0.83;100.00;99467.13;5051071;28;19956;-66
2024/01/25 04:05:35;;;;;;;9.87;6.47;;;;;;;0.91;100.00;99463.88;5044429;28;20071;-67
2024/01/25 04:08:01;;;;;;;6.90;5.40;;;;;;;0.77;100.00;99440.63;5031322;28;20299;-64
2024/01/25 04:10:26;;;;;;;8.70;5.93;;;;;;;0.73;100.00;99442.69;5030991;28;20060;-65
2024/01/25 04:12:52;;;;;;;7.13;5.60;;;;;;;0.69;100.00;99443.91;5031020;28;20044;-65
2024/01/25 04:15:17;;;;;;;11.07;7.43;;;;;;;0.73;100.00;99455.78;5030983;28;20110;-65
2024/01/25 04:17:43;;;;;;;6.23;5.30;;;;;;;0.61;100.00;99451.63;5029948;28;20115;-66
2024/01/25 04:20:09;;;;;;;7.33;5.20;;;;;;;0.76;100.00;99486.97;5030828;28;20053;-67
2024/01/25 04:22:36;;;;;;;6.37;5.63;;;;;;;0.68;100.00;99460.59;5031148;28;20033;-65
2024/01/25 04:25:01;;;;;;;6.60;5.83;;;;;;;0.70;100.00;99465.72;5030903;28;20033;-67
2024/01/25 04:27:28;;;;;;;8.27;5.17;;;;;;;0.80;100.00;99475.25;5030760;28;20785;-66
2024/01/25 04:29:54;;;;;;;6.17;5.53;;;;;;;0.83;100.00;99487.25;5029534;28;20394;-65
2024/01/25 04:32:19;;;;;;;7.13;5.67;;;;;;;0.69;100.00;99470.13;5031410;28;20132;-66
2024/01/25 04:34:47;;;;;;;7.53;5.40;;;;;;;0.85;100.00;99495.81;5031307;28;20033;-65
2024/01/25 04:37:13;;;;;;;7.80;5.97;;;;;;;0.77;100.00;99499.09;5030928;28;20046;-64
2024/01/25 04:39:39;;;;;;;8.83;6.27;;;;;;;0.83;100.00;99497.75;5031116;28;20264;-67
2024/01/25 04:42:04;;;;;;;9.17;5.97;;;;;;;0.92;100.00;99508.28;5030814;28;20613;-65
2024/01/25 04:44:30;;;;;;;6.27;5.67;;;;;;;0.92;100.00;99513.53;5029766;28;20037;-65
2024/01/25 04:46:56;;;;;;;8.40;5.63;;;;;;;0.82;100.00;99502.16;5030630;28;20065;-66
2024/01/25 04:49:21;;;;;;;6.40;4.77;;;;;;;0.84;100.00;99508.09;5030992;28;20049;-66
2024/01/25 04:51:47;;;;;;;6.73;4.73;;;;;;;0.67;100.00;99477.28;5030555;28;20260;-68
2024/01/25 04:54:15;;;;;;;7.50;6.70;;;;;;;0.55;100.00;99459.97;5030832;28;20025;-66
2024/01/25 04:56:44;;;;;;;8.77;5.73;;;;;;;0.89;100.00;99513.81;5032194;28;20550;-64
2024/01/25 04:59:09;;;;;;;14.23;6.93;;;;;;;0.75;100.00;99489.72;5034443;28;20300;-65
2024/01/25 05:01:35;;;;;;;6.73;5.10;;;;;;;0.80;100.00;99493.59;5033111;28;20056;-66
2024/01/25 05:04:00;;;;;;;9.87;5.10;;;;;;;0.99;100.00;99519.06;5034461;28;20033;-66
2024/01/25 05:06:26;;;;;;;6.70;5.67;;;;;;;1.07;100.00;99548.09;5033638;28;20038;-64
2024/01/25 05:08:51;;;;;;;8.63;5.73;;;;;;;1.07;100.00;99547.25;5034442;28;20067;-64
2024/01/25 05:11:17;;;;;;;7.60;5.33;;;;;;;0.96;100.00;99529.84;5034121;28;20049;-64
2024/01/25 05:13:43;;;;;;;7.47;5.40;;;;;;;1.00;100.00;99533.84;5034104;28;20048;-64
2024/01/25 05:16:09;;;;;;;10.10;6.17;;;;;;;1.06;100.00;99545.59;5033734;28;20114;-64
2024/01/25 05:18:37;;;;;;;8.23;6.37;;;;;;;0.71;100.00;99483.09;5033817;28;20617;-63
2024/01/25 05:21:02;;;;;;;9.00;6.18;;;;;;;1.03;100.00;99525.72;5034438;28;20087;-65
2024/01/25 05:23:28;;;;;;;6.13;5.50;;;;;;;1.04;100.00;99548.34;5033503;28;20037;-65
2024/01/25 05:25:53;;;;;;;8.10;6.07;;;;;;;1.02;100.00;99545.03;5032417;28;20424;-65
2024/01/25 05:28:19;;;;;;;7.27;5.90;;;;;;;0.92;100.00;99539.75;5033674;28;20033;-64
2024/01/25 05:30:44;;;;;;;8.33;6.57;;;;;;;0.90;100.00;99549.53;5032290;28;20128;-65
2024/01/25 05:33:10;;;;;;;8.83;5.60;;;;;;;0.59;100.00;99505.94;5032830;28;20473;-65
2024/01/25 05:35:35;;;;;;;9.77;6.33;;;;;;;0.93;100.00;99566.78;5033769;28;20516;-66
2024/01/25 05:38:01;;;;;;;11.50;8.07;;;;;;;0.90;100.00;99553.94;5033757;28;20521;-65
2024/01/25 05:40:26;;;;;;;7.13;5.43;;;;;;;0.93;100.00;99557.13;5033410;28;20037;-64
2024/01/25 05:42:52;;;;;;;8.20;5.93;;;;;;;0.91;100.00;99556.44;5033301;28;20113;-65
2024/01/25 05:45:20;;;;;;;6.40;5.20;;;;;;;1.00;100.00;99567.09;5033246;28;20264;-65
2024/01/25 05:47:46;;;;;;;6.55;5.22;;;;;;;1.16;100.00;99588.44;5033400;28;20390;-67
2024/01/25 05:50:11;;;;;;;9.07;5.23;;;;;;;1.12;100.00;99587.00;5031833;28;20102;-65
2024/01/25 05:52:37;;;;;;;5.47;4.97;;;;;;;1.07;100.00;99594.44;5050460;28;20259;-66
2024/01/25 05:55:04;;;;;;;10.03;6.53;;;;;;;0.71;100.00;99552.03;5051477;28;20033;-66
2024/01/25 05:57:30;;;;;;;7.97;5.30;;;;;;;0.84;100.00;99568.38;5052874;28;20051;-66
2024/01/25 05:59:55;;;;;;;7.43;5.60;;;;;;;0.82;100.00;99569.47;5053073;28;20743;-68
2024/01/25 06:02:21;;;;;;;8.07;6.13;;;;;;;0.91;100.00;99585.28;5052988;28;20033;-65
2024/01/25 06:04:46;;;;;;;11.20;6.77;;;;;;;1.05;100.00;99612.09;5052443;28;20183;-65
2024/01/25 06:07:12;;;;;;;7.70;6.10;;;;;;;1.10;100.00;99610.75;5045548;28;20033;-65
2024/01/25 06:09:39;;;;;;;9.80;6.47;;;;;;;1.09;100.00;99608.25;5052282;28;20119;-64
2024/01/25 06:12:05;;;;;;;10.10;6.23;;;;;;;0.97;100.00;99590.94;5039799;28;20059;-65
2024/01/25 06:14:30;;;;;;;8.13;6.03;;;;;;;0.98;100.00;99603.09;5050198;28;20294;-65
2024/01/25 06:16:58;;;;;;;9.00;5.83;;;;;;;1.07;100.00;99612.81;5048620;28;20279;-66
2024/01/25 06:19:24;;;;;;;9.70;6.03;;;;;;;1.04;100.00;99599.94;5047996;28;20045;-64
2024/01/25 06:21:50;;;;;;;7.90;5.37;;;;;;;1.18;100.00;99634.53;5043324;28;20284;-67
2024/01/25 06:24:15;;;;;;;9.17;6.07;;;;;;;0.70;100.00;99560.88;5041795;28;20325;-65
2024/01/25 06:26:41;;;;;;;10.93;6.63;;;;;;;1.12;100.00;99644.69;5042813;28;20043;-67
2024/01/25 06:29:06;;;;;;;9.67;5.97;;;;;;;1.06;100.00;99645.22;5052480;28;20492;-67
2024/01/25 06:31:32;;;;;;;10.23;6.87;;;;;;;1.07;100.00;99646.88;5045098;28;20033;-66
2024/01/25 06:33:57;;;;;;;8.87;6.67;;;;;;;0.92;100.00;99639.38;5032896;28;20120;-65
2024/01/25 06:36:23;;;;;;;9.37;7.37;;;;;;;1.03;100.00;99653.34;5037625;28;20448;-65
2024/01/25 06:38:48;;;;;;;8.83;6.70;;;;;;;1.02;100.00;99664.81;5041011;28;20048;-65
2024/01/25 06:41:16;;;;;;;11.23;6.90;;;;;;;0.93;100.00;99661.16;5036600;28;20071;-75
2024/01/25 06:43:41;;;;;;;9.00;6.77;;;;;;;0.79;100.00;99646.56;5047856;28;20041;-67
2024/01/25 06:46:07;;;;;;;11.93;7.27;;;;;;;0.97;100.00;99666.97;5040268;28;20334;-68
2024/01/25 06:48:33;;;;;;;11.47;6.83;;;;;;;0.88;100.00;99665.97;5044427;28;20035;-66
2024/01/25 06:50:59;;;;;;;10.10;6.30;;;;;;;0.79;100.00;99651.81;5051398;28;20546;-66
2024/01/25 06:53:24;;;;;;;11.63;7.63;;;;;;;0.97;100.00;99673.06;5056244;28;20144;-70
2024/01/25 06:55:50;;;;;;;9.27;7.70;;;;;;;0.95;100.00;99687.25;5051886;28;20045;-70
2024/01/25 06:58:15;;;;;;;13.47;7.33;;;;;;;1.00;100.00;99685.06;5051147;28;20040;-70
2024/01/25 07:00:42;;;;;;;12.33;7.37;;;;;;;0.93;100.00;99672.47;5050721;28;20037;-66
2024/01/25 07:03:08;;;;;;;8.70;7.13;;;;;;;0.84;100.00;99678.47;5040195;28;20114;-67
2024/01/25 07:05:35;;;;;;;9.47;7.27;;;;;;;1.06;100.00;99710.78;5048446;28;20771;-65
2024/01/25 07:08:01;;;;;;;11.17;6.73;;;;;;;1.03;100.00;99704.00;5050780;28;20325;-65
2024/01/25 07:10:27;;;;;;;9.27;6.63;;;;;;;0.19;100.00;99566.03;5046207;28;20340;-68
2024/01/25 07:12:53;;;;;;;7.50;6.00;;;;;;;0.98;100.00;99700.09;5051681;28;20732;-66
2024/01/25 07:15:19;;;;;;;11.70;8.13;;;;;;;1.10;100.00;99725.28;5049243;28;20488;-66
2024/01/25 07:17:46;;;;;;;10.27;7.33;;;;;;;1.15;100.00;99725.72;5039584;28;20306;-65
2024/01/25 07:20:15;;;;;;;12.67;7.57;;;;;;;0.98;100.00;99710.59;5039183;28;20505;-65
2024/01/25 07:22:40;;;;;;;;;;;;;;;1.07;100.00;99741.28;5044197;28;20348;-67
2024/01/25 07:25:06;;;;;;;8.63;6.63;;;;;;;1.08;100.00;99748.19;5043621;28;20443;-65
2024/01/25 07:27:32;;;;;;;9.57;6.93;;;;;;;1.00;100.00;99740.13;5038006;28;20037;-64
2024/01/25 07:29:57;;;;;;;11.53;7.00;;;;;;;1.08;100.00;99748.19;5046587;28;20775;-63
2024/01/25 07:32:26;;;;;;;10.03;7.27;;;;;;;1.02;100.00;99744.28;5051486;28;20045;-66
2024/01/25 07:34:52;;;;;;;;;;;;;;;1.12;100.00;99760.91;5047393;28;20048;-65
2024/01/25 07:37:20;;;;;;;8.93;6.83;;;;;;;1.08;100.00;99764.75;5039218;28;19929;-66
2024/01/25 07:39:46;;;;;;;7.07;5.88;;;;;;;1.05;100.00;99764.16;5043493;28;20041;-66
2024/01/25 07:42:12;;;;;;;11.83;6.87;;;;;;;1.00;100.00;99761.94;5041301;28;20098;-65
2024/01/25 07:44:38;;;;;;;15.63;7.67;;;;;;;1.07;100.00;99780.59;5034661;28;20067;-67
2024/01/25 07:47:03;;;;;;;10.60;6.00;;;;;;;1.10;100.00;99780.34;5043466;28;20275;-64
2024/01/25 07:49:29;;;;;;;13.33;6.47;;;;;;;1.08;100.00;99780.47;5068338;28;20040;-65
2024/01/25 07:51:56;;;;;;;12.13;6.80;;;;;;;1.13;100.00;99790.59;5047639;28;20497;-67
2024/01/25 07:54:22;;;;;;;12.50;7.57;;;;;;;0.90;100.00;99769.72;5050202;28;20036;-67
2024/01/25 07:56:47;;;;;;;10.90;7.40;;;;;;;0.99;100.00;99786.50;5049913;28;20354;-67
2024/01/25 07:59:13;;;;;;;9.97;6.40;;;;;;;1.12;100.00;99802.03;5046134;28;20041;-67
2024/01/25 08:01:38;;;;;;;7.93;6.50;;;;;;;1.18;100.00;99797.16;5048476;28;20075;-68
2024/01/25 08:04:04;;;;;;;13.47;6.93;;;;;;;1.23;100.00;99802.84;5047116;28;20045;-65
2024/01/25 08:06:29;;;;;;;8.87;6.43;;;;;;;0.99;100.00;99767.31;5050355;28;20048;-65
2024/01/25 08:08:55;;;;;;;8.70;6.27;;;;;;;1.02;100.00;99783.63;5061270;28;20036;-63
2024/01/25 08:11:21;;;;;;;8.70;6.27;;;;;;;1.06;100.00;99792.06;5061976;28;20040;-65
2024/01/25 08:13:49;;;;;;;8.67;6.30;;;;;;;1.25;100.00;99831.56;5066528;28;20025;-66
2024/01/25 08:16:19;;;;;;;10.38;6.68;;;;;;;1.22;100.00;99834.44;5065857;28;20437;-67
2024/01/25 08:18:45;;;;;;;9.33;5.27;;;;;;;1.21;100.00;99832.78;5054636;28;20068;-65
2024/01/25 08:21:12;;;;;;;11.00;8.10;;;;;;;1.25;100.00;99842.06;5046707;28;20619;-65
2024/01/25 08:23:38;;;;;;;9.10;6.83;;;;;;;1.12;100.00;99825.63;5062079;28;20271;-67
2024/01/25 08:26:04;;;;;;;7.83;6.10;;;;;;;1.17;100.00;99836.63;5062359;28;20413;-67
2024/01/25 08:28:29;;;;;;;14.67;7.97;;;;;;;1.22;100.00;99844.94;5047851;28;20359;-67
2024/01/25 08:30:54;;;;;;;9.73;6.33;;;;;;;1.14;100.00;99836.84;5048452;28;20511;-66
2024/01/25 08:33:20;;;;;;;9.40;6.17;;;;;;;1.21;100.00;99845.88;5061520;28;20080;-68
2024/01/25 08:35:45;;;;;;;9.33;5.73;;;;;;;1.33;100.00;99862.41;5067079;28;20381;-68
2024/01/25 08:38:11;;;;;;;7.00;5.37;;;;;;;1.30;100.00;99858.25;5069704;28;20059;-68
2024/01/25 08:40:36;;;;;;;8.53;6.40;;;;;;;1.28;100.00;99868.03;5066762;28;20052;-66
2024/01/25 08:43:02;;;;;;;11.30;6.13;;;;;;;1.25;100.00;99863.03;5066521;28;20041;-67
2024/01/25 08:45:27;;;;;;;9.57;5.17;;;;;;;1.18;100.00;99846.97;5072321;28;20047;-66
2024/01/25 08:47:53;;;;;;;6.30;4.87;;;;;;;1.26;100.00;99872.56;5064075;28;20028;-65
2024/01/25 08:50:18;;;;;;;8.33;5.60;;;;;;;1.18;100.00;99860.09;5066268;28;20045;-66
2024/01/25 08:52:44;;;;;;;8.43;5.40;;;;;;;1.05;100.00;99838.41;5069042;28;20037;-67
2024/01/25 08:55:09;;;;;;;8.33;5.60;;;;;;;1.20;100.00;99868.66;5074616;28;20041;-67
2024/01/25 08:57:35;;;;;;;9.23;5.93;;;;;;;1.26;100.00;99867.31;5066968;28;20068;-68
2024/01/25 09:00:02;;;;;;;10.23;6.07;;;;;;;1.36;100.00;99889.22;5071611;28;20052;-69
2024/01/25 09:02:31;;;;;;;8.13;5.30;;;;;;;1.41;100.00;99886.22;5068830;28;20279;-69
2024/01/25 09:04:57;;;;;;;6.27;4.80;;;;;;;1.45;100.00;99898.16;5058625;28;20049;-67
2024/01/25 09:07:23;;;;;;;6.63;4.47;;;;;;;1.42;100.00;99901.00;5043117;28;20299;-67
2024/01/25 09:09:49;;;;;;;5.90;4.43;;;;;;;1.17;100.00;99871.53;5043258;28;20041;-66
2024/01/25 09:12:15;;;;;;;8.50;5.63;;;;;;;1.29;100.00;99898.56;5037493;28;20036;-65
2024/01/25 09:14:42;;;;;;;8.03;5.57;;;;;;;1.21;100.00;99891.31;5039389;28;20379;-68
2024/01/25 09:17:08;;;;;;;9.87;6.20;;;;;;;1.30;100.00;99921.19;5039239;28;20298;-66
2024/01/25 09:19:36;;;;;;;7.63;5.37;;;;;;;1.24;100.00;99916.44;5046565;28;20290;-66
2024/01/25 09:22:04;;;;;;;11.53;5.73;;;;;;;1.24;100.00;99905.97;5048028;28;20375;-66
2024/01/25 09:24:35;;;;;;;7.00;4.73;;;;;;;1.23;100.00;99914.78;5043972;28;20303;-66
2024/01/25 09:27:02;;;;;;;7.67;4.73;;;;;;;0.83;100.00;99860.28;5038478;28;20311;-66
2024/01/25 09:29:28;;;;;;;9.83;6.30;;;;;;;1.41;100.00;99946.56;5037506;28;20723;-66
2024/01/25 09:31:54;;;;;;;6.90;5.67;;;;;;;1.39;100.00;99949.31;5043434;28;20317;-65
2024/01/25 09:34:21;;;;;;;7.30;5.13;;;;;;;1.40;100.00;99948.34;5039782;28;20349;-67
2024/01/25 09:36:46;;;;;;;6.83;5.77;;;;;;;1.17;100.00;99916.13;5042490;28;21210;-64
2024/01/25 09:39:12;;;;;;;7.33;5.47;;;;;;;1.34;100.00;99948.84;5048452;28;20279;-66
2024/01/25 09:41:37;;;;;;;7.87;5.70;;;;;;;1.36;100.00;99941.69;5046236;28;20123;-66
2024/01/25 09:44:03;;;;;;;9.57;5.27;;;;;;;1.32;100.00;99932.41;5048683;28;20033;-70
2024/01/25 09:46:30;;;;;;;7.90;5.60;;;;;;;1.46;100.00;99957.53;5046955;28;20033;-66
2024/01/25 09:48:56;;;;;;;5.67;4.33;;;;;;;1.35;100.00;99947.88;5038204;28;20060;-69
2024/01/25 09:51:23;;;;;;;8.73;5.13;;;;;;;1.42;100.00;99956.91;5045842;28;20779;-70
2024/01/25 09:53:49;;;;;;;6.67;5.53;;;;;;;1.40;100.00;99969.34;5047003;28;20113;-70
2024/01/25 09:56:17;;;;;;;6.13;4.63;;;;;;;1.22;100.00;99939.34;5046092;28;20347;-68
2024/01/25 09:58:46;;;;;;;5.88;4.47;;;;;;;1.37;100.00;99966.97;5045922;28;20369;-67
2024/01/25 10:01:14;;;;;;;8.50;5.27;;;;;;;1.28;100.00;99959.84;5042002;28;20087;-70
2024/01/25 10:03:47;;;;;;;7.32;4.32;;;;;;;1.33;100.00;99970.78;5038230;28;20299;-69
2024/01/25 10:06:13;;;;;;;6.43;5.13;;;;;;;1.38;100.00;99981.75;5039445;28;20048;-71
2024/01/25 10:08:39;;;;;;;11.07;4.80;;;;;;;1.34;100.00;99985.56;5038685;28;20318;-71
2024/01/25 10:11:06;;;;;;;7.97;5.73;;;;;;;1.34;100.00;100001.31;5045149;28;20779;-67
2024/01/25 10:13:31;;;;;;;6.60;5.63;;;;;;;1.18;100.00;99965.00;5048706;28;20400;-69
2024/01/25 10:15:58;;;;;;;6.80;5.27;;;;;;;1.33;100.00;100009.31;5043707;28;20789;-67
2024/01/25 10:18:26;;;;;;;7.00;4.90;;;;;;;1.26;100.00;99995.03;5037292;28;20053;-66
2024/01/25 10:20:54;;;;;;;5.10;4.03;;;;;;;1.28;100.00;99993.94;5044215;28;20333;-68
2024/01/25 10:23:20;;;;;;;4.73;4.27;;;;;;;1.33;100.00;100010.16;5036443;28;20390;-67
2024/01/25 10:25:46;;;;;;;4.80;4.07;;;;;;;1.31;100.00;100009.44;5035458;28;20422;-71
2024/01/25 10:28:12;;;;;;;6.33;4.40;;;;;;;1.15;100.00;99974.88;5055832;28;20282;-71
2024/01/25 10:30:38;;;;;;;6.27;5.30;;;;;;;1.32;100.00;100008.47;5043453;28;20162;-68
2024/01/25 10:33:04;;;;;;;4.07;3.13;;;;;;;1.28;100.00;100011.47;5047031;28;20321;-69
2024/01/25 10:35:31;;;;;;;4.67;3.47;;;;;;;1.20;100.00;100005.03;5047164;28;20283;-68
2024/01/25 10:37:57;;;;;;;4.00;3.60;;;;;;;1.28;100.00;100033.28;5047908;28;20110;-70
2024/01/25 10:40:23;;;;;;;3.90;3.13;;;;;;;1.27;100.00;100031.63;5046091;28;20322;-70
2024/01/25 10:42:49;;;;;;;5.70;3.80;;;;;;;1.32;100.00;100024.22;5038237;28;20502;-66
2024/01/25 10:45:14;;;;;;;12.10;6.47;;;;;;;1.41;100.00;100047.09;5034690;28;20551;-66
2024/01/25 10:47:44;;;;;;;4.10;3.70;;;;;;;1.31;100.00;100043.53;5039308;28;20041;-68
2024/01/25 10:50:13;;;;;;;5.27;3.70;;;;;;;1.33;100.00;100056.53;5023673;28;20056;-68
2024/01/25 10:52:41;;;;;;;6.10;3.60;;;;;;;1.13;100.00;100029.22;5033335;28;20287;-66
2024/01/25 10:55:08;;;;;;;5.13;3.00;;;;;;;1.22;100.00;100060.00;5043007;28;20288;-69
2024/01/25 10:57:43;;;;;;;5.37;3.53;;;;;;;1.01;100.00;100035.44;5034558;28;20042;-67
2024/01/25 11:00:12;;;;;;;4.37;3.77;;;;;;;1.06;100.00;100056.91;5037797;28;20413;-66
2024/01/25 11:02:41;;;;;;;7.23;4.10;;;;;;;1.10;100.00;100068.81;5048921;28;20354;-67
2024/01/25 11:05:11;;;;;;;4.33;3.40;;;;;;;1.05;100.00;100065.72;5033910;28;20287;-68
2024/01/25 11:07:42;;;;;;;4.33;3.80;;;;;;;0.97;100.00;100052.38;5035361;28;20352;-66
2024/01/25 11:10:21;;;;;;;5.47;4.90;;;;;;;1.17;100.00;100083.13;5036013;28;20849;-66
2024/01/25 11:12:51;;;;;;;4.87;3.47;;;;;;;1.17;100.00;100097.09;5038959;28;20704;-68
2024/01/25 11:15:29;;;;;;;4.83;3.40;;;;;;;0.99;100.00;100085.38;5035326;28;20787;-67
2024/01/25 11:17:56;;;;;;;7.40;4.28;;;;;;;0.99;100.00;100085.38;5033754;28;20336;-67
2024/01/25 11:20:23;;;;;;;6.63;4.00;;;;;;;0.98;100.00;100094.19;5035255;28;20114;-66
2024/01/25 11:22:55;;;;;;;5.87;4.37;;;;;;;0.96;100.00;100090.03;5032034;28;20295;-67
2024/01/25 11:25:21;;;;;;;11.37;5.07;;;;;;;0.89;100.00;100074.78;5036837;28;20327;-68
2024/01/25 11:27:50;;;;;;;5.50;4.73;;;;;;;1.21;100.00;100116.88;5036806;28;20280;-67